createdAt,value
2023-05-01T00:01:34.803Z,1012.6
2023-05-01T00:04:34.833Z,1012.5
2023-05-01T00:07:34.822Z,1012.5
2023-05-01T00:10:34.810Z,1012.5
2023-05-01T00:13:34.815Z,1012.4
2023-05-01T00:16:34.860Z,1012.4
2023-05-01T00:19:34.830Z,1012.4
2023-05-01T00:22:34.832Z,1012.5
2023-05-01T00:25:34.831Z,1012.5
2023-05-01T00:28:34.839Z,1012.5
2023-05-01T00:31:34.918Z,1012.4
2023-05-01T00:34:34.854Z,1012.5
2023-05-01T00:37:34.875Z,1012.4
2023-05-01T00:40:34.867Z,1012.3
2023-05-01T00:43:34.870Z,1012.3
2023-05-01T00:46:34.945Z,1012.3
2023-05-01T00:49:34.874Z,1012.2
2023-05-01T00:52:34.887Z,1012.2
2023-05-01T00:55:34.877Z,1012.1
2023-05-01T00:58:34.898Z,1012.1
2023-05-01T01:01:34.952Z,1012
2023-05-01T01:04:34.937Z,1012
2023-05-01T01:07:34.895Z,1011.9
2023-05-01T01:10:34.894Z,1011.9
2023-05-01T01:13:34.900Z,1011.9
2023-05-01T01:16:34.910Z,1012
2023-05-01T01:19:34.911Z,1011.9
2023-05-01T01:22:34.903Z,1011.9
2023-05-01T01:25:34.910Z,1011.9
2023-05-01T01:28:34.922Z,1011.9
2023-05-01T01:31:34.969Z,1011.8
2023-05-01T01:34:34.939Z,1011.9
2023-05-01T01:37:34.951Z,1011.8
2023-05-01T01:40:34.947Z,1011.8
2023-05-01T01:43:34.946Z,1011.7
2023-05-01T01:46:34.996Z,1011.7
2023-05-01T01:49:34.959Z,1011.7
2023-05-01T01:52:34.960Z,1011.7
2023-05-01T01:55:34.977Z,1011.6
2023-05-01T01:58:34.960Z,1011.6
2023-05-01T02:01:35.006Z,1011.5
2023-05-01T02:04:34.975Z,1011.5
2023-05-01T02:07:34.988Z,1011.5
2023-05-01T02:10:34.981Z,1011.5
2023-05-01T02:13:34.995Z,1011.5
2023-05-01T02:16:35.073Z,1011.4
2023-05-01T02:19:35.009Z,1011.3
2023-05-01T02:22:35.004Z,1011.4
2023-05-01T02:25:35.037Z,1011.3
2023-05-01T02:28:35.019Z,1011.3
2023-05-01T02:31:35.035Z,1011.3
2023-05-01T02:34:35.020Z,1011.2
2023-05-01T02:37:35.031Z,1011.2
2023-05-01T02:40:35.028Z,1011.1
2023-05-01T02:43:35.028Z,1011.1
2023-05-01T02:46:35.054Z,1011.1
2023-05-01T02:49:35.050Z,1011.1
2023-05-01T02:52:35.053Z,1011.1
2023-05-01T02:55:35.061Z,1011
2023-05-01T02:58:35.061Z,1010.9
2023-05-01T03:01:35.092Z,1010.7
2023-05-01T03:04:35.092Z,1010.6
2023-05-01T03:07:35.114Z,1010.7
2023-05-01T03:10:35.086Z,1010.6
2023-05-01T03:13:35.081Z,1010.5
2023-05-01T03:16:35.128Z,1010.5
2023-05-01T03:19:35.105Z,1010.6
2023-05-01T03:22:35.091Z,1010.6
2023-05-01T03:25:35.089Z,1010.6
2023-05-01T03:28:35.105Z,1010.5
2023-05-01T03:31:35.151Z,1010.5
2023-05-01T03:34:35.119Z,1010.5
2023-05-01T03:37:35.128Z,1010.5
2023-05-01T03:40:35.120Z,1010.5
2023-05-01T03:43:35.138Z,1010.4
2023-05-01T03:46:35.148Z,1010.4
2023-05-01T03:49:35.133Z,1010.4
2023-05-01T03:52:35.135Z,1010.4
2023-05-01T03:55:35.145Z,1010.3
2023-05-01T03:58:35.148Z,1010.3
2023-05-01T04:01:35.162Z,1010.3
2023-05-01T04:04:35.185Z,1010.4
2023-05-01T04:07:35.174Z,1010.3
2023-05-01T04:10:35.171Z,1010.3
2023-05-01T04:13:35.180Z,1010.4
2023-05-01T04:16:35.190Z,1010.3
2023-05-01T04:19:35.186Z,1010.4
2023-05-01T04:22:35.184Z,1010.4
2023-05-01T04:25:35.197Z,1010.3
2023-05-01T04:28:35.200Z,1010.3
2023-05-01T04:31:35.235Z,1010.2
2023-05-01T04:34:35.202Z,1010.2
2023-05-01T04:37:35.213Z,1010.1
2023-05-01T04:40:35.201Z,1010.2
2023-05-01T04:43:35.207Z,1010.1
2023-05-01T04:46:35.252Z,1010.1
2023-05-01T04:49:35.218Z,1010
2023-05-01T04:52:35.220Z,1009.8
2023-05-01T04:55:35.223Z,1009.8
2023-05-01T04:58:35.237Z,1009.9
2023-05-01T05:01:35.240Z,1009.9
2023-05-01T05:04:35.233Z,1009.7
2023-05-01T05:07:35.246Z,1009.8
2023-05-01T05:10:35.248Z,1009.8
2023-05-01T05:13:35.251Z,1009.8
2023-05-01T05:16:35.266Z,1009.8
2023-05-01T05:19:35.266Z,1009.8
2023-05-01T05:22:35.270Z,1009.8
2023-05-01T05:25:35.308Z,1009.7
2023-05-01T05:28:35.269Z,1009.6
2023-05-01T05:31:35.315Z,1009.7
2023-05-01T05:34:35.289Z,1009.7
2023-05-01T05:37:35.286Z,1009.7
2023-05-01T05:40:35.289Z,1009.7
2023-05-01T05:43:35.296Z,1009.8
2023-05-01T05:46:35.373Z,1009.7
2023-05-01T05:49:35.309Z,1009.7
2023-05-01T05:52:35.308Z,1009.7
2023-05-01T05:55:35.317Z,1009.6
2023-05-01T05:58:35.314Z,1009.6
2023-05-01T06:01:35.325Z,1009.6
2023-05-01T06:04:35.322Z,1009.7
2023-05-01T06:07:35.335Z,1009.6
2023-05-01T06:10:35.343Z,1009.5
2023-05-01T06:13:35.358Z,1009.6
2023-05-01T06:16:35.381Z,1009.6
2023-05-01T06:19:35.354Z,1009.5
2023-05-01T06:22:35.353Z,1009.5
2023-05-01T06:25:35.360Z,1009.6
2023-05-01T06:28:35.380Z,1009.5
2023-05-01T06:31:35.409Z,1009.6
2023-05-01T06:34:35.396Z,1009.5
2023-05-01T06:37:35.374Z,1009.4
2023-05-01T06:40:35.375Z,1009.5
2023-05-01T06:43:35.390Z,1009.5
2023-05-01T06:46:35.407Z,1009.4
2023-05-01T06:49:35.417Z,1009.4
2023-05-01T06:52:35.403Z,1009.4
2023-05-01T06:55:35.970Z,1009.4
2023-05-01T06:58:35.405Z,1009.4
2023-05-01T07:01:35.746Z,1009.3
2023-05-01T07:04:35.412Z,1009.2
2023-05-01T07:07:35.421Z,1009.2
2023-05-01T07:10:35.425Z,1009.2
2023-05-01T07:13:35.432Z,1009.2
2023-05-01T07:16:35.443Z,1009.1
2023-05-01T07:19:35.425Z,1009.1
2023-05-01T07:22:35.444Z,1009.1
2023-05-01T07:25:35.448Z,1009.1
2023-05-01T07:28:35.452Z,1009
2023-05-01T07:31:35.507Z,1009.1
2023-05-01T07:34:35.462Z,1009.1
2023-05-01T07:37:35.464Z,1009
2023-05-01T07:40:35.461Z,1009
2023-05-01T07:43:35.501Z,1008.9
2023-05-01T07:46:35.502Z,1008.9
2023-05-01T07:49:35.474Z,1008.7
2023-05-01T07:52:35.470Z,1008.8
2023-05-01T07:55:35.492Z,1008.8
2023-05-01T07:58:35.478Z,1008.7
2023-05-01T08:01:35.485Z,1008.7
2023-05-01T08:04:35.506Z,1008.6
2023-05-01T08:07:35.508Z,1008.6
2023-05-01T08:10:35.507Z,1008.6
2023-05-01T08:13:35.506Z,1008.6
2023-05-01T08:16:35.548Z,1008.6
2023-05-01T08:19:35.513Z,1008.5
2023-05-01T08:22:35.516Z,1008.5
2023-05-01T08:25:35.518Z,1008.5
2023-05-01T08:28:35.529Z,1008.5
2023-05-01T08:31:35.562Z,1008.4
2023-05-01T08:34:35.563Z,1008.4
2023-05-01T08:37:35.543Z,1008.4
2023-05-01T08:40:35.551Z,1008.4
2023-05-01T08:43:35.570Z,1008.3
2023-05-01T08:46:35.594Z,1008.2
2023-05-01T08:49:35.551Z,1008.2
2023-05-01T08:52:35.549Z,1008.2
2023-05-01T08:55:35.548Z,1008.1
2023-05-01T08:58:35.548Z,1008.1
2023-05-01T09:01:35.609Z,1008.1
2023-05-01T09:04:35.561Z,1008.1
2023-05-01T09:07:35.569Z,1008
2023-05-01T09:10:35.571Z,1008.1
2023-05-01T09:13:35.597Z,1008
2023-05-01T09:16:35.605Z,1008
2023-05-01T09:19:35.581Z,1008
2023-05-01T09:22:35.592Z,1008
2023-05-01T09:25:35.609Z,1008
2023-05-01T09:28:35.603Z,1008
2023-05-01T09:31:35.642Z,1007.9
2023-05-01T09:34:35.627Z,1007.9
2023-05-01T09:37:35.630Z,1007.8
2023-05-01T09:40:35.662Z,1007.8
2023-05-01T09:43:35.660Z,1007.8
2023-05-01T09:46:35.677Z,1007.7
2023-05-01T09:49:35.653Z,1007.7
2023-05-01T09:52:35.669Z,1007.7
2023-05-01T09:55:35.677Z,1007.7
2023-05-01T09:58:35.680Z,1007.7
2023-05-01T10:01:35.739Z,1007.6
2023-05-01T10:04:35.698Z,1007.5
2023-05-01T10:07:35.688Z,1007.6
2023-05-01T10:10:35.689Z,1007.5
2023-05-01T10:13:35.706Z,1007.5
2023-05-01T10:16:35.790Z,1007.5
2023-05-01T10:19:35.710Z,1007.5
2023-05-01T10:22:35.718Z,1007.4
2023-05-01T10:25:35.711Z,1007.4
2023-05-01T10:28:35.713Z,1007.4
2023-05-01T10:31:35.760Z,1007.4
2023-05-01T10:34:35.728Z,1007.3
2023-05-01T10:37:35.718Z,1007.3
2023-05-01T10:40:35.724Z,1007.3
2023-05-01T10:43:35.728Z,1007.2
2023-05-01T10:46:35.754Z,1007.2
2023-05-01T10:49:35.735Z,1007.2
2023-05-01T10:52:35.736Z,1007.1
2023-05-01T10:55:35.747Z,1007
2023-05-01T10:58:35.747Z,1007
2023-05-01T11:01:35.770Z,1007
2023-05-01T11:04:35.757Z,1007
2023-05-01T11:07:35.763Z,1006.9
2023-05-01T11:10:35.771Z,1006.8
2023-05-01T11:13:35.770Z,1006.8
2023-05-01T11:16:35.786Z,1006.7
2023-05-01T11:19:35.787Z,1006.8
2023-05-01T11:22:35.785Z,1006.8
2023-05-01T11:25:35.793Z,1006.7
2023-05-01T11:28:35.805Z,1006.7
2023-05-01T11:31:35.822Z,1006.6
2023-05-01T11:34:35.818Z,1006.5
2023-05-01T11:37:35.807Z,1006.4
2023-05-01T11:40:35.814Z,1006.4
2023-05-01T11:43:35.821Z,1006.4
2023-05-01T11:46:35.985Z,1006.4
2023-05-01T11:49:35.843Z,1006.4
2023-05-01T11:52:35.844Z,1006.3
2023-05-01T11:55:35.842Z,1006.3
2023-05-01T11:58:35.850Z,1006.2
2023-05-01T12:01:35.855Z,1006.2
2023-05-01T12:04:35.871Z,1006.1
2023-05-01T12:07:35.852Z,1006.2
2023-05-01T12:10:35.871Z,1006.2
2023-05-01T12:13:35.855Z,1006.2
2023-05-01T12:16:35.896Z,1006.2
2023-05-01T12:19:35.860Z,1006.1
2023-05-01T12:22:35.868Z,1006.1
2023-05-01T12:25:35.871Z,1006
2023-05-01T12:28:35.877Z,1006
2023-05-01T12:31:35.906Z,1006.1
2023-05-01T12:34:35.883Z,1005.9
2023-05-01T12:37:35.882Z,1006
2023-05-01T12:40:35.889Z,1006
2023-05-01T12:43:35.933Z,1005.9
2023-05-01T12:46:35.953Z,1005.9
2023-05-01T12:49:35.903Z,1005.9
2023-05-01T12:52:35.903Z,1005.7
2023-05-01T12:55:35.904Z,1005.8
2023-05-01T12:58:35.912Z,1005.8
2023-05-01T13:01:35.921Z,1005.7
2023-05-01T13:04:35.970Z,1005.6
2023-05-01T13:07:35.923Z,1005.6
2023-05-01T13:10:35.930Z,1005.6
2023-05-01T13:13:35.934Z,1005.7
2023-05-01T13:16:35.944Z,1005.7
2023-05-01T13:19:35.931Z,1005.5
2023-05-01T13:22:35.940Z,1005.5
2023-05-01T13:25:35.945Z,1005.6
2023-05-01T13:28:35.952Z,1005.5
2023-05-01T13:31:35.983Z,1005.5
2023-05-01T13:34:35.968Z,1005.5
2023-05-01T13:37:35.974Z,1005.4
2023-05-01T13:40:35.970Z,1005.4
2023-05-01T13:43:35.968Z,1005.4
2023-05-01T13:46:36.282Z,1005.4
2023-05-01T13:49:35.972Z,1005.3
2023-05-01T13:52:35.988Z,1005.4
2023-05-01T13:55:35.985Z,1005.3
2023-05-01T13:58:35.986Z,1005.3
2023-05-01T14:01:36.040Z,1005.3
2023-05-01T14:04:35.994Z,1005.3
2023-05-01T14:07:35.999Z,1005.4
2023-05-01T14:10:36.005Z,1005.4
2023-05-01T14:13:36.016Z,1005.3
2023-05-01T14:16:36.071Z,1005.2
2023-05-01T14:19:36.016Z,1005.2
2023-05-01T14:22:36.020Z,1005.2
2023-05-01T14:25:36.023Z,1005.2
2023-05-01T14:28:36.028Z,1005.2
2023-05-01T14:31:36.034Z,1005.1
2023-05-01T14:34:36.031Z,1005.1
2023-05-01T14:37:36.037Z,1005.1
2023-05-01T14:40:36.044Z,1005.1
2023-05-01T14:43:36.057Z,1005
2023-05-01T14:46:36.140Z,1005
2023-05-01T14:49:36.064Z,1005
2023-05-01T14:52:36.074Z,1004.9
2023-05-01T14:55:36.072Z,1004.9
2023-05-01T14:58:36.361Z,1004.8
2023-05-01T15:01:36.112Z,1004.9
2023-05-01T15:04:36.144Z,1004.9
2023-05-01T15:07:36.115Z,1004.9
2023-05-01T15:10:36.088Z,1004.9
2023-05-01T15:13:36.085Z,1004.9
2023-05-01T15:16:36.173Z,1005
2023-05-01T15:19:36.101Z,1004.9
2023-05-01T15:22:36.114Z,1004.9
2023-05-01T15:25:36.101Z,1004.9
2023-05-01T15:28:36.103Z,1004.8
2023-05-01T15:31:36.147Z,1004.8
2023-05-01T15:34:36.110Z,1004.8
2023-05-01T15:37:36.113Z,1004.7
2023-05-01T15:40:36.111Z,1004.8
2023-05-01T15:43:36.113Z,1004.8
2023-05-01T15:46:36.191Z,1004.8
2023-05-01T15:49:36.119Z,1004.8
2023-05-01T15:52:36.131Z,1004.9
2023-05-01T15:55:36.121Z,1004.8
2023-05-01T15:58:36.122Z,1004.9
2023-05-01T16:01:36.147Z,1004.9
2023-05-01T16:04:36.115Z,1004.9
2023-05-01T16:07:36.130Z,1004.8
2023-05-01T16:10:36.116Z,1004.8
2023-05-01T16:13:36.121Z,1004.8
2023-05-01T16:16:36.147Z,1004.8
2023-05-01T16:19:36.124Z,1004.8
2023-05-01T16:22:36.133Z,1004.8
2023-05-01T16:25:36.126Z,1004.8
2023-05-01T16:28:36.128Z,1004.8
2023-05-01T16:31:36.155Z,1004.8
2023-05-01T16:34:36.129Z,1004.8
2023-05-01T16:37:36.128Z,1004.8
2023-05-01T16:40:36.125Z,1004.8
2023-05-01T16:43:36.127Z,1004.8
2023-05-01T16:46:36.188Z,1004.8
2023-05-01T16:49:36.135Z,1004.7
2023-05-01T16:52:36.141Z,1004.8
2023-05-01T16:55:36.134Z,1004.8
2023-05-01T16:58:36.132Z,1004.8
2023-05-01T17:01:36.152Z,1004.8
2023-05-01T17:04:36.190Z,1004.9
2023-05-01T17:07:36.143Z,1004.9
2023-05-01T17:10:36.140Z,1004.9
2023-05-01T17:13:36.135Z,1004.8
2023-05-01T17:16:36.221Z,1004.8
2023-05-01T17:19:36.147Z,1004.7
2023-05-01T17:22:36.142Z,1004.7
2023-05-01T17:25:36.152Z,1004.7
2023-05-01T17:28:36.151Z,1004.7
2023-05-01T17:31:36.168Z,1004.7
2023-05-01T17:34:36.163Z,1004.7
2023-05-01T17:37:36.160Z,1004.7
2023-05-01T17:40:36.160Z,1004.7
2023-05-01T17:43:36.165Z,1004.7
2023-05-01T17:46:36.195Z,1004.7
2023-05-01T17:49:36.165Z,1004.7
2023-05-01T17:52:36.164Z,1004.7
2023-05-01T17:55:36.162Z,1004.7
2023-05-01T17:58:36.166Z,1004.7
2023-05-01T18:01:36.216Z,1004.7
2023-05-01T18:04:37.468Z,1004.6
2023-05-01T18:07:36.163Z,1004.7
2023-05-01T18:10:36.172Z,1004.6
2023-05-01T18:13:36.166Z,1004.7
2023-05-01T18:16:36.226Z,1004.7
2023-05-01T18:19:36.178Z,1004.7
2023-05-01T18:22:36.174Z,1004.8
2023-05-01T18:25:36.168Z,1004.8
2023-05-01T18:28:36.170Z,1004.7
2023-05-01T18:31:36.214Z,1004.8
2023-05-01T18:34:36.182Z,1004.8
2023-05-01T18:37:36.180Z,1004.9
2023-05-01T18:40:36.186Z,1004.9
2023-05-01T18:43:36.197Z,1004.9
2023-05-01T18:46:36.235Z,1004.9
2023-05-01T18:49:36.181Z,1005
2023-05-01T18:52:36.185Z,1005
2023-05-01T18:55:36.187Z,1005
2023-05-01T18:58:36.187Z,1005
2023-05-01T19:01:36.263Z,1005
2023-05-01T19:04:40.197Z,1005
2023-05-01T19:07:36.189Z,1005
2023-05-01T19:10:37.259Z,1005
2023-05-01T19:13:36.190Z,1005
2023-05-01T19:16:36.243Z,1005.1
2023-05-01T19:19:36.185Z,1005
2023-05-01T19:22:36.191Z,1005
2023-05-01T19:25:36.199Z,1005.1
2023-05-01T19:28:37.595Z,1005
2023-05-01T19:31:36.201Z,1005
2023-05-01T19:34:36.188Z,1005.1
2023-05-01T19:37:36.207Z,1005.1
2023-05-01T19:40:36.206Z,1005.2
2023-05-01T19:43:36.211Z,1005.2
2023-05-01T19:46:36.205Z,1005.2
2023-05-01T19:49:36.225Z,1005.3
2023-05-01T19:52:36.205Z,1005.3
2023-05-01T19:55:36.210Z,1005.3
2023-05-01T19:58:36.214Z,1005.3
2023-05-01T20:01:36.268Z,1005.3
2023-05-01T20:04:36.251Z,1005.4
2023-05-01T20:07:36.218Z,1005.5
2023-05-01T20:10:36.223Z,1005.6
2023-05-01T20:13:36.220Z,1005.6
2023-05-01T20:16:36.274Z,1005.7
2023-05-01T20:19:37.665Z,1005.7
2023-05-01T20:22:36.220Z,1005.6
2023-05-01T20:25:36.232Z,1005.7
2023-05-01T20:28:36.225Z,1005.6
2023-05-01T20:31:36.245Z,1005.7
2023-05-01T20:34:36.230Z,1005.7
2023-05-01T20:37:36.228Z,1005.7
2023-05-01T20:40:36.224Z,1005.7
2023-05-01T20:43:36.234Z,1005.7
2023-05-01T20:46:36.290Z,1005.8
2023-05-01T20:49:36.240Z,1005.7
2023-05-01T20:52:36.238Z,1005.7
2023-05-01T20:55:36.242Z,1005.8
2023-05-01T20:58:36.238Z,1005.8
2023-05-01T21:01:36.326Z,1005.8
2023-05-01T21:04:36.237Z,1005.8
2023-05-01T21:07:36.244Z,1005.8
2023-05-01T21:10:36.247Z,1005.8
2023-05-01T21:13:36.243Z,1005.8
2023-05-01T21:16:36.368Z,1005.8
2023-05-01T21:19:36.250Z,1005.8
2023-05-01T21:22:36.252Z,1005.8
2023-05-01T21:25:36.252Z,1005.9
2023-05-01T21:28:36.244Z,1005.9
2023-05-01T21:31:36.281Z,1005.8
2023-05-01T21:34:36.272Z,1005.9
2023-05-01T21:37:36.259Z,1005.9
2023-05-01T21:40:36.266Z,1005.9
2023-05-01T21:43:36.259Z,1005.9
2023-05-01T21:46:36.287Z,1006.1
2023-05-01T21:49:36.267Z,1006.2
2023-05-01T21:52:36.265Z,1006.2
2023-05-01T21:55:36.262Z,1006.3
2023-05-01T21:58:36.288Z,1006.3
2023-05-01T22:01:36.321Z,1006.3
2023-05-01T22:04:36.261Z,1006.3
2023-05-01T22:07:36.265Z,1006.3
2023-05-01T22:10:36.296Z,1006.4
2023-05-01T22:13:36.288Z,1006.4
2023-05-01T22:16:36.303Z,1006.5
2023-05-01T22:19:36.275Z,1006.5
2023-05-01T22:22:36.286Z,1006.6
2023-05-01T22:25:36.274Z,1006.6
2023-05-01T22:28:36.282Z,1006.6
2023-05-01T22:31:36.293Z,1006.8
2023-05-01T22:34:36.283Z,1006.8
2023-05-01T22:37:36.284Z,1006.7
2023-05-01T22:40:36.288Z,1006.8
2023-05-01T22:43:36.287Z,1006.8
2023-05-01T22:46:36.291Z,1006.8
2023-05-01T22:49:36.309Z,1006.9
2023-05-01T22:52:36.289Z,1006.9
2023-05-01T22:55:36.294Z,1006.9
2023-05-01T22:58:36.305Z,1007
2023-05-01T23:01:36.350Z,1007.1
2023-05-01T23:04:36.311Z,1007.1
2023-05-01T23:07:36.336Z,1007.1
2023-05-01T23:10:36.302Z,1007.1
2023-05-01T23:13:36.300Z,1007.1
2023-05-01T23:16:36.484Z,1007.2
2023-05-01T23:19:36.309Z,1007.2
2023-05-01T23:22:36.305Z,1007.2
2023-05-01T23:25:36.311Z,1007.2
2023-05-01T23:28:36.310Z,1007.3
2023-05-01T23:31:36.363Z,1007.3
2023-05-01T23:34:36.312Z,1007.4
2023-05-01T23:37:36.333Z,1007.4
2023-05-01T23:40:36.316Z,1007.4
2023-05-01T23:43:36.315Z,1007.4
2023-05-01T23:46:36.378Z,1007.4
2023-05-01T23:49:36.334Z,1007.4
2023-05-01T23:52:36.334Z,1007.4
2023-05-01T23:55:36.333Z,1007.4
2023-05-01T23:58:36.337Z,1007.4
